Погода Новая Есинеевкана неделю

Пензенская область, Россия

22 - 28 мая
  • 22мая
    Сегодня
    +8°
    +24°
    Небольшая облачность
    ВремяПогодаТемператураВлажностьДавлениеВетер, м/сВероятность осадков
    00:00Ясно и безоблачно+16°C67 %749 мм0.2 м/с2 %
    03:00Ясно и безоблачно+14°C74 %749 мм0.2 м/с2 %
    06:00Ясно и безоблачно+14°C80 %749 мм0.5 м/с2 %
    09:00Ясно и безоблачно+22°C53 %749 мм1.0 м/с4 %
    12:00Небольшая облачность+21°C68 %750 мм3.6 м/с10 %
    15:00Небольшая облачность+21°C57 %749 мм1.0 м/с27 %
    18:00Облачно с прояснениями, небольшой дождь+19°C77 %749 мм2.9 м/с32 %
    21:00Ясно и безоблачно+14°C94 %749 мм1.8 м/с3 %
  • 23мая
    Четверг
    +4°
    +16°
    Ясно и безоблачно
    ВремяПогодаТемператураВлажностьДавлениеВетер, м/сВероятность осадков
    00:00Ясно и безоблачно+12°C95 %750 мм3.0 м/с1 %
    03:00Ясно и безоблачно+10°C86 %750 мм3.7 м/с2 %
    06:00Ясно и безоблачно+10°C72 %752 мм4.9 м/с2 %
    09:00Практически безоблачно+14°C52 %753 мм5.8 м/с2 %
    12:00Ясно и безоблачно+15°C40 %754 мм6.0 м/с1 %
    15:00Ясно и безоблачно+15°C34 %754 мм6.1 м/с2 %
    18:00Ясно и безоблачно+14°C36 %755 мм5.4 м/с2 %
    21:00Ясно и безоблачно+9°C46 %756 мм3.6 м/с2 %
  • 24мая
    Пятница
    +5°
    +17°
    Практически безоблачно
    ВремяПогодаТемператураВлажностьДавлениеВетер, м/сВероятность осадков
    00:00Ясно и безоблачно+6°C53 %757 мм3.8 м/с2 %
    03:00Ясно и безоблачно+5°C60 %758 мм2.8 м/с2 %
    06:00Ясно и безоблачно+6°C64 %759 мм2.4 м/с2 %
    09:00Ясно и безоблачно+12°C38 %760 мм4.1 м/с2 %
    12:00Ясно и безоблачно+14°C37 %759 мм3.5 м/с2 %
    15:00Практически безоблачно+16°C38 %759 мм3.1 м/с2 %
    18:00Ясно и безоблачно+16°C42 %759 мм2.3 м/с2 %
    21:00Небольшая облачность+11°C66 %759 мм1.6 м/с2 %
  • 25мая
    Суббота
    +8°
    +21°
    Ясно и безоблачно
    ВремяПогодаТемператураВлажностьДавлениеВетер, м/сВероятность осадков
    00:00Небольшая облачность+8°C75 %759 мм1.7 м/с2 %
    03:00Ясно и безоблачно+7°C77 %759 мм1.9 м/с2 %
    06:00Ясно и безоблачно+10°C69 %759 мм1.9 м/с2 %
    09:00Ясно и безоблачно+16°C45 %759 мм2.0 м/с2 %
    12:00Ясно и безоблачно+18°C43 %758 мм1.7 м/с2 %
    15:00Ясно и безоблачно+19°C41 %757 мм2.6 м/с2 %
    18:00Ясно и безоблачно+21°C45 %756 мм2.7 м/с2 %
    21:00Ясно и безоблачно+13°C69 %755 мм2.3 м/с2 %
  • 26мая
    Воскресенье
    +12°
    +23°
    Ясно и безоблачно
    ВремяПогодаТемператураВлажностьДавлениеВетер, м/сВероятность осадков
    00:00Ясно и безоблачно+11°C76 %754 мм2.2 м/с2 %
    03:00Ясно и безоблачно+9°C77 %753 мм2.3 м/с2 %
    06:00Ясно и безоблачно+13°C66 %753 мм3.1 м/с2 %
    09:00Небольшая облачность+19°C45 %753 мм4.0 м/с2 %
    12:00Ясно и безоблачно+21°C38 %752 мм4.5 м/с2 %
    15:00Ясно и безоблачно+22°C36 %751 мм4.6 м/с2 %
    18:00Ясно и безоблачно+22°C43 %750 мм3.4 м/с3 %
    21:00Ясно и безоблачно+16°C60 %750 мм2.4 м/с2 %
Мы используем cookies
Соглашаюсь